sensor_id;sensor_type;location;lat;lon;timestamp;temperature;humidity
20384;DHT22;46458;50.966;7.002;2023-06-22T00:02:27;24.10;99.90
20384;DHT22;46458;50.966;7.002;2023-06-22T00:04:56;24.00;99.90
20384;DHT22;46458;50.966;7.002;2023-06-22T00:07:25;23.90;99.90
20384;DHT22;46458;50.966;7.002;2023-06-22T00:09:54;24.00;99.90
20384;DHT22;46458;50.966;7.002;2023-06-22T00:12:23;24.20;99.90
20384;DHT22;46458;50.966;7.002;2023-06-22T00:14:52;24.30;99.90
20384;DHT22;46458;50.966;7.002;2023-06-22T00:17:21;24.30;99.90
20384;DHT22;46458;50.966;7.002;2023-06-22T00:19:53;24.30;99.90
20384;DHT22;46458;50.966;7.002;2023-06-22T00:22:24;24.40;99.90
20384;DHT22;46458;50.966;7.002;2023-06-22T00:24:56;24.40;99.90
20384;DHT22;46458;50.966;7.002;2023-06-22T00:27:25;24.20;99.90
20384;DHT22;46458;50.966;7.002;2023-06-22T00:29:54;24.40;99.90
20384;DHT22;46458;50.966;7.002;2023-06-22T00:32:23;24.40;99.90
20384;DHT22;46458;50.966;7.002;2023-06-22T00:34:54;24.30;99.90
20384;DHT22;46458;50.966;7.002;2023-06-22T00:37:23;24.30;99.90
20384;DHT22;46458;50.966;7.002;2023-06-22T00:39:55;24.40;99.90
20384;DHT22;46458;50.966;7.002;2023-06-22T00:42:24;24.20;99.90
20384;DHT22;46458;50.966;7.002;2023-06-22T00:44:53;24.10;99.90
20384;DHT22;46458;50.966;7.002;2023-06-22T00:47:23;24.00;99.90
20384;DHT22;46458;50.966;7.002;2023-06-22T00:49:55;24.10;99.90
20384;DHT22;46458;50.966;7.002;2023-06-22T00:52:25;24.20;99.90
20384;DHT22;46458;50.966;7.002;2023-06-22T00:54:57;24.30;99.90
20384;DHT22;46458;50.966;7.002;2023-06-22T00:57:29;24.10;99.90
20384;DHT22;46458;50.966;7.002;2023-06-22T00:59:58;24.10;99.90
20384;DHT22;46458;50.966;7.002;2023-06-22T01:02:27;24.00;99.90
20384;DHT22;46458;50.966;7.002;2023-06-22T01:05:02;23.90;99.90
20384;DHT22;46458;50.966;7.002;2023-06-22T01:07:42;23.80;99.90
20384;DHT22;46458;50.966;7.002;2023-06-22T01:10:20;23.90;99.90
20384;DHT22;46458;50.966;7.002;2023-06-22T01:12:53;23.90;99.90
20384;DHT22;46458;50.966;7.002;2023-06-22T01:15:27;24.00;99.90
20384;DHT22;46458;50.966;7.002;2023-06-22T01:17:57;23.90;99.90
20384;DHT22;46458;50.966;7.002;2023-06-22T01:20:34;23.90;99.90
20384;DHT22;46458;50.966;7.002;2023-06-22T01:23:10;23.80;99.90
20384;DHT22;46458;50.966;7.002;2023-06-22T01:25:46;23.80;99.90
20384;DHT22;46458;50.966;7.002;2023-06-22T01:31:02;23.80;99.90
20384;DHT22;46458;50.966;7.002;2023-06-22T01:33:34;23.80;99.90
20384;DHT22;46458;50.966;7.002;2023-06-22T01:36:05;23.80;99.90
20384;DHT22;46458;50.966;7.002;2023-06-22T01:38:36;23.90;99.90
20384;DHT22;46458;50.966;7.002;2023-06-22T01:41:07;24.00;99.90
20384;DHT22;46458;50.966;7.002;2023-06-22T01:43:39;24.00;99.90
20384;DHT22;46458;50.966;7.002;2023-06-22T01:46:14;23.90;99.90
20384;DHT22;46458;50.966;7.002;2023-06-22T01:48:46;23.90;99.90
20384;DHT22;46458;50.966;7.002;2023-06-22T01:51:15;23.80;99.90
20384;DHT22;46458;50.966;7.002;2023-06-22T01:53:44;23.90;99.90
20384;DHT22;46458;50.966;7.002;2023-06-22T01:56:15;23.80;99.90
20384;DHT22;46458;50.966;7.002;2023-06-22T01:58:52;23.80;99.90
20384;DHT22;46458;50.966;7.002;2023-06-22T02:01:31;23.70;99.90
20384;DHT22;46458;50.966;7.002;2023-06-22T02:04:06;23.80;99.90
20384;DHT22;46458;50.966;7.002;2023-06-22T02:06:37;23.90;99.90
20384;DHT22;46458;50.966;7.002;2023-06-22T02:09:09;24.10;99.90
20384;DHT22;46458;50.966;7.002;2023-06-22T02:11:42;24.10;99.90
20384;DHT22;46458;50.966;7.002;2023-06-22T02:14:13;24.10;99.90
20384;DHT22;46458;50.966;7.002;2023-06-22T02:16:47;24.20;99.90
20384;DHT22;46458;50.966;7.002;2023-06-22T02:19:15;24.10;99.90
20384;DHT22;46458;50.966;7.002;2023-06-22T02:21:44;24.10;99.90
20384;DHT22;46458;50.966;7.002;2023-06-22T02:24:13;24.10;99.90
20384;DHT22;46458;50.966;7.002;2023-06-22T02:26:43;24.20;99.90
20384;DHT22;46458;50.966;7.002;2023-06-22T02:29:12;24.00;99.90
20384;DHT22;46458;50.966;7.002;2023-06-22T02:31:42;24.10;99.90
20384;DHT22;46458;50.966;7.002;2023-06-22T02:34:17;24.10;99.90
20384;DHT22;46458;50.966;7.002;2023-06-22T02:36:46;24.20;99.90
20384;DHT22;46458;50.966;7.002;2023-06-22T02:39:18;24.10;99.90
20384;DHT22;46458;50.966;7.002;2023-06-22T02:41:49;24.10;99.90
20384;DHT22;46458;50.966;7.002;2023-06-22T02:44:18;24.20;99.90
20384;DHT22;46458;50.966;7.002;2023-06-22T02:46:49;24.00;99.90
20384;DHT22;46458;50.966;7.002;2023-06-22T02:49:23;24.10;99.90
20384;DHT22;46458;50.966;7.002;2023-06-22T02:51:52;24.10;99.90
20384;DHT22;46458;50.966;7.002;2023-06-22T02:54:22;24.10;99.90
20384;DHT22;46458;50.966;7.002;2023-06-22T02:56:53;24.10;99.90
20384;DHT22;46458;50.966;7.002;2023-06-22T02:59:22;24.00;99.90
20384;DHT22;46458;50.966;7.002;2023-06-22T03:01:59;23.90;99.90
20384;DHT22;46458;50.966;7.002;2023-06-22T03:04:33;23.90;99.90
20384;DHT22;46458;50.966;7.002;2023-06-22T03:07:05;23.90;99.90
20384;DHT22;46458;50.966;7.002;2023-06-22T03:09:37;23.80;99.90
20384;DHT22;46458;50.966;7.002;2023-06-22T03:12:07;23.70;99.90
20384;DHT22;46458;50.966;7.002;2023-06-22T03:14:45;23.70;99.90
20384;DHT22;46458;50.966;7.002;2023-06-22T03:17:14;23.60;99.90
20384;DHT22;46458;50.966;7.002;2023-06-22T03:19:46;23.70;99.90
20384;DHT22;46458;50.966;7.002;2023-06-22T03:22:15;23.80;99.90
20384;DHT22;46458;50.966;7.002;2023-06-22T03:24:43;23.90;99.90
20384;DHT22;46458;50.966;7.002;2023-06-22T03:27:12;23.90;99.90
20384;DHT22;46458;50.966;7.002;2023-06-22T03:29:41;23.70;99.90
20384;DHT22;46458;50.966;7.002;2023-06-22T03:32:11;23.70;99.90
20384;DHT22;46458;50.966;7.002;2023-06-22T03:34:40;23.50;99.90
20384;DHT22;46458;50.966;7.002;2023-06-22T03:37:16;23.70;99.90
20384;DHT22;46458;50.966;7.002;2023-06-22T03:39:46;23.80;99.90
20384;DHT22;46458;50.966;7.002;2023-06-22T03:42:16;23.60;99.90
20384;DHT22;46458;50.966;7.002;2023-06-22T03:44:46;23.60;99.90
20384;DHT22;46458;50.966;7.002;2023-06-22T03:47:15;23.50;99.90
20384;DHT22;46458;50.966;7.002;2023-06-22T03:49:43;23.50;99.90
20384;DHT22;46458;50.966;7.002;2023-06-22T03:52:16;23.50;99.90
20384;DHT22;46458;50.966;7.002;2023-06-22T03:54:48;23.40;99.90
20384;DHT22;46458;50.966;7.002;2023-06-22T03:57:16;23.40;99.90
20384;DHT22;46458;50.966;7.002;2023-06-22T03:59:45;23.40;99.90
20384;DHT22;46458;50.966;7.002;2023-06-22T04:02:14;23.30;99.90
20384;DHT22;46458;50.966;7.002;2023-06-22T04:04:46;23.30;99.90
20384;DHT22;46458;50.966;7.002;2023-06-22T04:07:20;23.30;99.90
20384;DHT22;46458;50.966;7.002;2023-06-22T04:09:49;23.30;99.90
20384;DHT22;46458;50.966;7.002;2023-06-22T04:12:18;23.10;99.90
20384;DHT22;46458;50.966;7.002;2023-06-22T04:14:47;23.20;99.90
20384;DHT22;46458;50.966;7.002;2023-06-22T04:17:16;23.10;99.90
20384;DHT22;46458;50.966;7.002;2023-06-22T04:19:45;23.20;99.90
20384;DHT22;46458;50.966;7.002;2023-06-22T04:22:14;23.20;99.90
20384;DHT22;46458;50.966;7.002;2023-06-22T04:24:48;23.30;99.90
20384;DHT22;46458;50.966;7.002;2023-06-22T04:27:21;23.30;99.90
20384;DHT22;46458;50.966;7.002;2023-06-22T04:29:54;23.30;99.90
20384;DHT22;46458;50.966;7.002;2023-06-22T04:32:26;23.40;99.90
20384;DHT22;46458;50.966;7.002;2023-06-22T04:34:54;23.20;99.90
20384;DHT22;46458;50.966;7.002;2023-06-22T04:37:23;23.20;99.90
20384;DHT22;46458;50.966;7.002;2023-06-22T04:39:55;23.20;99.90
20384;DHT22;46458;50.966;7.002;2023-06-22T04:42:28;23.10;99.90
20384;DHT22;46458;50.966;7.002;2023-06-22T04:44:57;23.10;99.90
20384;DHT22;46458;50.966;7.002;2023-06-22T04:47:26;23.10;99.90
20384;DHT22;46458;50.966;7.002;2023-06-22T04:49:58;23.10;99.90
20384;DHT22;46458;50.966;7.002;2023-06-22T04:52:31;23.00;99.90
20384;DHT22;46458;50.966;7.002;2023-06-22T04:55:03;23.00;99.90
20384;DHT22;46458;50.966;7.002;2023-06-22T04:57:32;23.10;99.90
20384;DHT22;46458;50.966;7.002;2023-06-22T05:00:08;23.10;99.90
20384;DHT22;46458;50.966;7.002;2023-06-22T05:02:43;23.10;99.90
20384;DHT22;46458;50.966;7.002;2023-06-22T05:05:13;23.20;99.90
20384;DHT22;46458;50.966;7.002;2023-06-22T05:07:43;23.10;99.90
20384;DHT22;46458;50.966;7.002;2023-06-22T05:10:17;23.00;99.90
20384;DHT22;46458;50.966;7.002;2023-06-22T05:12:46;23.20;99.90
20384;DHT22;46458;50.966;7.002;2023-06-22T05:15:15;23.50;99.90
20384;DHT22;46458;50.966;7.002;2023-06-22T05:17:47;23.50;99.90
20384;DHT22;46458;50.966;7.002;2023-06-22T05:20:19;23.70;99.90
20384;DHT22;46458;50.966;7.002;2023-06-22T05:22:48;23.80;99.90
20384;DHT22;46458;50.966;7.002;2023-06-22T05:25:19;23.80;99.90
20384;DHT22;46458;50.966;7.002;2023-06-22T05:27:48;23.80;99.90
20384;DHT22;46458;50.966;7.002;2023-06-22T05:30:17;23.80;99.90
20384;DHT22;46458;50.966;7.002;2023-06-22T05:32:46;23.90;99.90
20384;DHT22;46458;50.966;7.002;2023-06-22T05:35:21;23.90;99.90
20384;DHT22;46458;50.966;7.002;2023-06-22T05:37:49;23.90;99.90
20384;DHT22;46458;50.966;7.002;2023-06-22T05:40:21;23.80;99.90
20384;DHT22;46458;50.966;7.002;2023-06-22T05:42:51;23.70;99.90
20384;DHT22;46458;50.966;7.002;2023-06-22T05:45:20;23.60;99.90
20384;DHT22;46458;50.966;7.002;2023-06-22T05:47:49;23.80;99.90
20384;DHT22;46458;50.966;7.002;2023-06-22T05:50:18;23.90;99.90
20384;DHT22;46458;50.966;7.002;2023-06-22T05:52:47;24.00;99.90
20384;DHT22;46458;50.966;7.002;2023-06-22T05:55:16;23.80;99.90
20384;DHT22;46458;50.966;7.002;2023-06-22T05:57:47;23.80;99.90
20384;DHT22;46458;50.966;7.002;2023-06-22T06:00:17;24.00;99.90
20384;DHT22;46458;50.966;7.002;2023-06-22T06:02:46;24.10;99.90
20384;DHT22;46458;50.966;7.002;2023-06-22T06:05:15;24.20;99.90
20384;DHT22;46458;50.966;7.002;2023-06-22T06:07:45;24.20;99.90
20384;DHT22;46458;50.966;7.002;2023-06-22T06:10:14;24.40;99.90
20384;DHT22;46458;50.966;7.002;2023-06-22T06:12:43;24.50;99.90
20384;DHT22;46458;50.966;7.002;2023-06-22T06:15:15;24.20;99.90
20384;DHT22;46458;50.966;7.002;2023-06-22T06:17:47;24.00;99.90
20384;DHT22;46458;50.966;7.002;2023-06-22T06:20:17;23.90;99.90
20384;DHT22;46458;50.966;7.002;2023-06-22T06:22:46;23.80;99.90
20384;DHT22;46458;50.966;7.002;2023-06-22T06:25:15;23.90;99.90
20384;DHT22;46458;50.966;7.002;2023-06-22T06:27:46;23.90;99.90
20384;DHT22;46458;50.966;7.002;2023-06-22T06:30:21;24.00;99.90
20384;DHT22;46458;50.966;7.002;2023-06-22T06:32:50;24.10;99.90
20384;DHT22;46458;50.966;7.002;2023-06-22T06:35:19;24.10;99.90
20384;DHT22;46458;50.966;7.002;2023-06-22T06:37:49;24.10;99.90
20384;DHT22;46458;50.966;7.002;2023-06-22T06:40:22;24.30;99.90
20384;DHT22;46458;50.966;7.002;2023-06-22T06:42:53;24.60;99.90
20384;DHT22;46458;50.966;7.002;2023-06-22T06:45:25;24.70;99.90
20384;DHT22;46458;50.966;7.002;2023-06-22T06:47:56;24.60;99.90
20384;DHT22;46458;50.966;7.002;2023-06-22T06:50:25;24.70;99.90
20384;DHT22;46458;50.966;7.002;2023-06-22T06:52:54;24.70;99.90
20384;DHT22;46458;50.966;7.002;2023-06-22T06:55:25;24.50;99.90
20384;DHT22;46458;50.966;7.002;2023-06-22T06:57:54;24.60;99.90
20384;DHT22;46458;50.966;7.002;2023-06-22T07:00:28;24.70;99.90
20384;DHT22;46458;50.966;7.002;2023-06-22T07:02:57;24.80;99.90
20384;DHT22;46458;50.966;7.002;2023-06-22T07:05:26;24.80;99.90
20384;DHT22;46458;50.966;7.002;2023-06-22T07:07:55;24.90;99.90
20384;DHT22;46458;50.966;7.002;2023-06-22T07:10:24;24.90;99.90
20384;DHT22;46458;50.966;7.002;2023-06-22T07:12:58;25.00;99.90
20384;DHT22;46458;50.966;7.002;2023-06-22T07:15:32;25.00;99.90
20384;DHT22;46458;50.966;7.002;2023-06-22T07:18:01;25.10;99.90
20384;DHT22;46458;50.966;7.002;2023-06-22T07:20:29;25.10;99.90
20384;DHT22;46458;50.966;7.002;2023-06-22T07:23:01;25.00;99.90
20384;DHT22;46458;50.966;7.002;2023-06-22T07:25:30;25.20;99.90
20384;DHT22;46458;50.966;7.002;2023-06-22T07:28:00;25.30;99.90
20384;DHT22;46458;50.966;7.002;2023-06-22T07:30:33;25.30;99.90
20384;DHT22;46458;50.966;7.002;2023-06-22T07:33:02;25.40;99.90
20384;DHT22;46458;50.966;7.002;2023-06-22T07:35:34;25.30;99.90
20384;DHT22;46458;50.966;7.002;2023-06-22T07:38:04;25.60;99.90
20384;DHT22;46458;50.966;7.002;2023-06-22T07:40:34;25.80;99.90
20384;DHT22;46458;50.966;7.002;2023-06-22T07:43:07;25.90;99.90
20384;DHT22;46458;50.966;7.002;2023-06-22T07:45:39;25.90;99.90
20384;DHT22;46458;50.966;7.002;2023-06-22T07:48:08;25.90;99.90
20384;DHT22;46458;50.966;7.002;2023-06-22T07:50:37;25.80;99.90
20384;DHT22;46458;50.966;7.002;2023-06-22T07:53:08;25.80;99.90
20384;DHT22;46458;50.966;7.002;2023-06-22T07:55:39;25.80;99.90
20384;DHT22;46458;50.966;7.002;2023-06-22T07:58:08;25.80;99.90
20384;DHT22;46458;50.966;7.002;2023-06-22T08:00:39;25.90;99.90
20384;DHT22;46458;50.966;7.002;2023-06-22T08:03:08;25.90;99.90
20384;DHT22;46458;50.966;7.002;2023-06-22T08:05:38;25.90;99.90
20384;DHT22;46458;50.966;7.002;2023-06-22T08:08:09;26.00;99.90
20384;DHT22;46458;50.966;7.002;2023-06-22T08:10:40;26.00;99.90
20384;DHT22;46458;50.966;7.002;2023-06-22T08:13:10;26.00;99.90
20384;DHT22;46458;50.966;7.002;2023-06-22T08:15:41;26.10;99.90
20384;DHT22;46458;50.966;7.002;2023-06-22T08:18:13;26.20;99.90
20384;DHT22;46458;50.966;7.002;2023-06-22T08:20:45;26.20;99.90
20384;DHT22;46458;50.966;7.002;2023-06-22T08:23:14;26.20;99.90
20384;DHT22;46458;50.966;7.002;2023-06-22T08:25:43;26.30;99.90
20384;DHT22;46458;50.966;7.002;2023-06-22T08:28:11;26.30;99.90
20384;DHT22;46458;50.966;7.002;2023-06-22T08:30:44;26.40;99.90
20384;DHT22;46458;50.966;7.002;2023-06-22T08:33:13;26.50;99.90
20384;DHT22;46458;50.966;7.002;2023-06-22T08:35:44;26.60;99.90
20384;DHT22;46458;50.966;7.002;2023-06-22T08:38:13;26.60;99.90
20384;DHT22;46458;50.966;7.002;2023-06-22T08:40:44;26.60;99.90
20384;DHT22;46458;50.966;7.002;2023-06-22T08:43:14;26.70;99.90
20384;DHT22;46458;50.966;7.002;2023-06-22T08:45:45;26.70;99.90
20384;DHT22;46458;50.966;7.002;2023-06-22T08:48:14;26.80;99.90
20384;DHT22;46458;50.966;7.002;2023-06-22T08:50:43;27.00;99.90
20384;DHT22;46458;50.966;7.002;2023-06-22T08:53:15;27.00;99.90
20384;DHT22;46458;50.966;7.002;2023-06-22T08:55:44;26.90;99.90
20384;DHT22;46458;50.966;7.002;2023-06-22T08:58:13;26.90;99.90
20384;DHT22;46458;50.966;7.002;2023-06-22T09:00:42;26.90;99.90
20384;DHT22;46458;50.966;7.002;2023-06-22T09:03:13;26.90;99.90
20384;DHT22;46458;50.966;7.002;2023-06-22T09:05:43;26.90;99.90
20384;DHT22;46458;50.966;7.002;2023-06-22T09:08:15;26.90;99.90
20384;DHT22;46458;50.966;7.002;2023-06-22T09:10:43;26.90;99.90
20384;DHT22;46458;50.966;7.002;2023-06-22T09:13:13;27.00;99.90
20384;DHT22;46458;50.966;7.002;2023-06-22T09:15:42;27.00;99.90
20384;DHT22;46458;50.966;7.002;2023-06-22T09:18:15;27.10;99.90
20384;DHT22;46458;50.966;7.002;2023-06-22T09:20:48;27.10;99.90
20384;DHT22;46458;50.966;7.002;2023-06-22T09:23:23;27.10;99.90
20384;DHT22;46458;50.966;7.002;2023-06-22T09:25:56;27.20;99.90
20384;DHT22;46458;50.966;7.002;2023-06-22T09:28:25;27.10;99.90
20384;DHT22;46458;50.966;7.002;2023-06-22T09:30:54;27.20;99.90
20384;DHT22;46458;50.966;7.002;2023-06-22T09:33:27;27.20;99.90
20384;DHT22;46458;50.966;7.002;2023-06-22T09:35:56;27.10;99.90
20384;DHT22;46458;50.966;7.002;2023-06-22T09:38:25;27.10;99.90
20384;DHT22;46458;50.966;7.002;2023-06-22T09:40:54;27.20;99.90
20384;DHT22;46458;50.966;7.002;2023-06-22T09:43:28;27.30;99.90
20384;DHT22;46458;50.966;7.002;2023-06-22T09:45:56;27.40;99.90
20384;DHT22;46458;50.966;7.002;2023-06-22T09:48:28;27.50;99.90
20384;DHT22;46458;50.966;7.002;2023-06-22T09:50:57;27.60;99.90
20384;DHT22;46458;50.966;7.002;2023-06-22T09:53:29;27.70;99.90
20384;DHT22;46458;50.966;7.002;2023-06-22T09:55:58;27.80;99.90
20384;DHT22;46458;50.966;7.002;2023-06-22T09:58:27;27.80;99.90
20384;DHT22;46458;50.966;7.002;2023-06-22T10:00:56;27.70;99.90
20384;DHT22;46458;50.966;7.002;2023-06-22T10:03:27;27.60;99.90
20384;DHT22;46458;50.966;7.002;2023-06-22T10:05:56;27.60;99.90
20384;DHT22;46458;50.966;7.002;2023-06-22T10:08:28;27.50;99.90
20384;DHT22;46458;50.966;7.002;2023-06-22T10:10:57;27.30;99.90
20384;DHT22;46458;50.966;7.002;2023-06-22T10:13:27;27.10;99.90
20384;DHT22;46458;50.966;7.002;2023-06-22T10:15:55;27.00;99.90
20384;DHT22;46458;50.966;7.002;2023-06-22T10:18:24;27.00;99.90
20384;DHT22;46458;50.966;7.002;2023-06-22T10:20:56;26.90;99.90
20384;DHT22;46458;50.966;7.002;2023-06-22T10:23:25;26.90;99.90
20384;DHT22;46458;50.966;7.002;2023-06-22T10:25:54;27.00;99.90
20384;DHT22;46458;50.966;7.002;2023-06-22T10:28:24;26.90;99.90
20384;DHT22;46458;50.966;7.002;2023-06-22T10:30:53;26.80;99.90
20384;DHT22;46458;50.966;7.002;2023-06-22T10:33:25;26.80;99.90
20384;DHT22;46458;50.966;7.002;2023-06-22T10:35:56;26.90;99.90
20384;DHT22;46458;50.966;7.002;2023-06-22T10:38:25;26.90;99.90
20384;DHT22;46458;50.966;7.002;2023-06-22T10:40:54;26.90;99.90
20384;DHT22;46458;50.966;7.002;2023-06-22T10:43:23;26.70;99.90
20384;DHT22;46458;50.966;7.002;2023-06-22T10:45:52;26.60;99.90
20384;DHT22;46458;50.966;7.002;2023-06-22T10:48:21;26.30;99.90
20384;DHT22;46458;50.966;7.002;2023-06-22T10:50:50;26.00;99.90
20384;DHT22;46458;50.966;7.002;2023-06-22T10:53:22;26.10;99.90
20384;DHT22;46458;50.966;7.002;2023-06-22T10:55:51;25.90;99.90
20384;DHT22;46458;50.966;7.002;2023-06-22T10:58:20;25.80;99.90
20384;DHT22;46458;50.966;7.002;2023-06-22T11:00:54;25.50;99.90
20384;DHT22;46458;50.966;7.002;2023-06-22T11:03:24;25.20;99.90
20384;DHT22;46458;50.966;7.002;2023-06-22T11:05:53;25.00;99.90
20384;DHT22;46458;50.966;7.002;2023-06-22T11:08:25;25.00;99.90
20384;DHT22;46458;50.966;7.002;2023-06-22T11:10:54;24.70;99.90
20384;DHT22;46458;50.966;7.002;2023-06-22T11:13:22;24.50;99.90
20384;DHT22;46458;50.966;7.002;2023-06-22T11:15:54;24.50;99.90
20384;DHT22;46458;50.966;7.002;2023-06-22T11:18:23;24.50;99.90
20384;DHT22;46458;50.966;7.002;2023-06-22T11:20:55;24.50;99.90
20384;DHT22;46458;50.966;7.002;2023-06-22T11:23:26;24.40;99.90
20384;DHT22;46458;50.966;7.002;2023-06-22T11:25:56;24.60;99.90
20384;DHT22;46458;50.966;7.002;2023-06-22T11:28:24;24.80;99.90
20384;DHT22;46458;50.966;7.002;2023-06-22T11:30:53;24.90;99.90
20384;DHT22;46458;50.966;7.002;2023-06-22T11:33:22;24.90;99.90
20384;DHT22;46458;50.966;7.002;2023-06-22T11:35:51;25.10;99.90
20384;DHT22;46458;50.966;7.002;2023-06-22T11:38:22;25.10;99.90
20384;DHT22;46458;50.966;7.002;2023-06-22T11:40:54;25.20;99.90
20384;DHT22;46458;50.966;7.002;2023-06-22T11:43:23;25.20;99.90
20384;DHT22;46458;50.966;7.002;2023-06-22T11:45:52;25.40;99.90
20384;DHT22;46458;50.966;7.002;2023-06-22T11:48:21;25.20;99.90
20384;DHT22;46458;50.966;7.002;2023-06-22T11:50:50;25.20;99.90
20384;DHT22;46458;50.966;7.002;2023-06-22T11:53:21;25.00;99.90
20384;DHT22;46458;50.966;7.002;2023-06-22T11:55:55;24.90;99.90
20384;DHT22;46458;50.966;7.002;2023-06-22T11:58:27;25.20;99.90
20384;DHT22;46458;50.966;7.002;2023-06-22T12:00:56;25.60;99.90
20384;DHT22;46458;50.966;7.002;2023-06-22T12:03:25;25.90;99.90
20384;DHT22;46458;50.966;7.002;2023-06-22T12:05:55;26.10;99.90
20384;DHT22;46458;50.966;7.002;2023-06-22T12:08:24;26.20;99.90
20384;DHT22;46458;50.966;7.002;2023-06-22T12:10:56;26.30;99.90
20384;DHT22;46458;50.966;7.002;2023-06-22T12:13:25;26.60;99.90
20384;DHT22;46458;50.966;7.002;2023-06-22T12:15:57;26.80;99.90
20384;DHT22;46458;50.966;7.002;2023-06-22T12:18:26;27.10;99.90
20384;DHT22;46458;50.966;7.002;2023-06-22T12:20:55;26.90;99.90
20384;DHT22;46458;50.966;7.002;2023-06-22T12:23:24;26.80;99.90
20384;DHT22;46458;50.966;7.002;2023-06-22T12:25:55;26.60;99.90
20384;DHT22;46458;50.966;7.002;2023-06-22T12:28:25;26.30;99.90
20384;DHT22;46458;50.966;7.002;2023-06-22T12:30:54;26.10;99.90
20384;DHT22;46458;50.966;7.002;2023-06-22T12:33:26;26.10;99.90
20384;DHT22;46458;50.966;7.002;2023-06-22T12:35:56;26.20;99.90
20384;DHT22;46458;50.966;7.002;2023-06-22T12:38:25;26.20;99.90
20384;DHT22;46458;50.966;7.002;2023-06-22T12:40:56;26.40;99.90
20384;DHT22;46458;50.966;7.002;2023-06-22T12:43:28;26.90;99.90
20384;DHT22;46458;50.966;7.002;2023-06-22T12:45:57;27.30;99.90
20384;DHT22;46458;50.966;7.002;2023-06-22T12:48:26;27.60;99.90
20384;DHT22;46458;50.966;7.002;2023-06-22T12:50:56;27.60;99.90
20384;DHT22;46458;50.966;7.002;2023-06-22T12:53:26;27.90;99.90
20384;DHT22;46458;50.966;7.002;2023-06-22T12:55:58;28.20;99.90
20384;DHT22;46458;50.966;7.002;2023-06-22T12:58:27;28.20;99.90
20384;DHT22;46458;50.966;7.002;2023-06-22T13:00:56;28.70;99.90
20384;DHT22;46458;50.966;7.002;2023-06-22T13:03:25;29.60;99.90
20384;DHT22;46458;50.966;7.002;2023-06-22T13:05:54;30.80;99.90
20384;DHT22;46458;50.966;7.002;2023-06-22T13:08:22;32.30;99.90
20384;DHT22;46458;50.966;7.002;2023-06-22T13:10:51;33.50;99.90
20384;DHT22;46458;50.966;7.002;2023-06-22T13:13:25;33.00;99.90
20384;DHT22;46458;50.966;7.002;2023-06-22T13:15:54;32.10;99.90
20384;DHT22;46458;50.966;7.002;2023-06-22T13:18:23;31.70;99.90
20384;DHT22;46458;50.966;7.002;2023-06-22T13:20:52;31.00;99.90
20384;DHT22;46458;50.966;7.002;2023-06-22T13:23:21;31.00;99.90
20384;DHT22;46458;50.966;7.002;2023-06-22T13:25:50;30.40;99.90
20384;DHT22;46458;50.966;7.002;2023-06-22T13:28:21;31.00;99.90
20384;DHT22;46458;50.966;7.002;2023-06-22T13:30:57;30.70;99.90
20384;DHT22;46458;50.966;7.002;2023-06-22T13:33:26;30.50;99.90
20384;DHT22;46458;50.966;7.002;2023-06-22T13:35:57;30.70;99.90
20384;DHT22;46458;50.966;7.002;2023-06-22T13:38:26;30.60;99.90
20384;DHT22;46458;50.966;7.002;2023-06-22T13:40:59;30.60;99.90
20384;DHT22;46458;50.966;7.002;2023-06-22T13:43:28;30.80;99.90
20384;DHT22;46458;50.966;7.002;2023-06-22T13:46:03;30.80;99.90
20384;DHT22;46458;50.966;7.002;2023-06-22T13:48:34;30.80;99.90
20384;DHT22;46458;50.966;7.002;2023-06-22T13:51:03;30.80;99.90
20384;DHT22;46458;50.966;7.002;2023-06-22T13:53:32;30.90;99.90
20384;DHT22;46458;50.966;7.002;2023-06-22T13:56:06;31.40;99.90
20384;DHT22;46458;50.966;7.002;2023-06-22T13:58:35;31.50;99.90
20384;DHT22;46458;50.966;7.002;2023-06-22T14:01:07;31.10;99.90
20384;DHT22;46458;50.966;7.002;2023-06-22T14:03:36;31.40;99.90
20384;DHT22;46458;50.966;7.002;2023-06-22T14:06:05;32.00;99.90
20384;DHT22;46458;50.966;7.002;2023-06-22T14:08:37;31.50;99.90
20384;DHT22;46458;50.966;7.002;2023-06-22T14:11:06;32.10;99.90
20384;DHT22;46458;50.966;7.002;2023-06-22T14:13:35;32.70;99.90
20384;DHT22;46458;50.966;7.002;2023-06-22T14:16:07;33.70;99.90
20384;DHT22;46458;50.966;7.002;2023-06-22T14:18:35;33.30;99.90
20384;DHT22;46458;50.966;7.002;2023-06-22T14:21:04;31.90;99.90
20384;DHT22;46458;50.966;7.002;2023-06-22T14:23:33;31.10;99.90
20384;DHT22;46458;50.966;7.002;2023-06-22T14:26:03;30.60;99.90
20384;DHT22;46458;50.966;7.002;2023-06-22T14:28:32;30.10;99.90
20384;DHT22;46458;50.966;7.002;2023-06-22T14:31:01;29.30;99.90
20384;DHT22;46458;50.966;7.002;2023-06-22T14:33:32;28.90;99.90
20384;DHT22;46458;50.966;7.002;2023-06-22T14:36:03;28.80;99.90
20384;DHT22;46458;50.966;7.002;2023-06-22T14:38:32;28.80;99.90
20384;DHT22;46458;50.966;7.002;2023-06-22T14:41:01;28.30;99.90
20384;DHT22;46458;50.966;7.002;2023-06-22T14:43:30;28.20;99.90
20384;DHT22;46458;50.966;7.002;2023-06-22T14:46:00;27.60;99.90
20384;DHT22;46458;50.966;7.002;2023-06-22T14:48:32;27.10;99.90
20384;DHT22;46458;50.966;7.002;2023-06-22T14:51:01;27.00;99.90
20384;DHT22;46458;50.966;7.002;2023-06-22T14:53:32;27.10;99.90
20384;DHT22;46458;50.966;7.002;2023-06-22T14:56:02;26.90;99.90
20384;DHT22;46458;50.966;7.002;2023-06-22T14:58:34;26.70;99.90
20384;DHT22;46458;50.966;7.002;2023-06-22T15:01:03;26.90;99.90
20384;DHT22;46458;50.966;7.002;2023-06-22T15:03:36;26.80;99.90
20384;DHT22;46458;50.966;7.002;2023-06-22T15:06:05;26.70;99.90
20384;DHT22;46458;50.966;7.002;2023-06-22T15:08:36;26.40;99.90
20384;DHT22;46458;50.966;7.002;2023-06-22T15:11:05;26.00;99.90
20384;DHT22;46458;50.966;7.002;2023-06-22T15:13:34;25.80;99.90
20384;DHT22;46458;50.966;7.002;2023-06-22T15:16:03;25.60;99.90
20384;DHT22;46458;50.966;7.002;2023-06-22T15:18:35;25.50;99.90
20384;DHT22;46458;50.966;7.002;2023-06-22T15:21:07;25.30;99.90
20384;DHT22;46458;50.966;7.002;2023-06-22T15:23:36;25.20;99.90
20384;DHT22;46458;50.966;7.002;2023-06-22T15:26:05;25.10;99.90
20384;DHT22;46458;50.966;7.002;2023-06-22T15:28:43;25.00;99.90
20384;DHT22;46458;50.966;7.002;2023-06-22T15:31:12;24.70;99.90
20384;DHT22;46458;50.966;7.002;2023-06-22T15:33:45;24.30;99.90
20384;DHT22;46458;50.966;7.002;2023-06-22T15:36:14;24.40;99.90
20384;DHT22;46458;50.966;7.002;2023-06-22T15:38:43;24.50;99.90
20384;DHT22;46458;50.966;7.002;2023-06-22T15:41:13;24.50;99.90
20384;DHT22;46458;50.966;7.002;2023-06-22T15:43:42;24.50;99.90
20384;DHT22;46458;50.966;7.002;2023-06-22T15:46:11;24.50;99.90
20384;DHT22;46458;50.966;7.002;2023-06-22T15:48:44;24.40;99.90
20384;DHT22;46458;50.966;7.002;2023-06-22T15:51:13;24.20;99.90
20384;DHT22;46458;50.966;7.002;2023-06-22T15:53:42;24.10;99.90